createdAt,value
2023-02-11T00:00:05.964Z,101596.16
2023-02-11T00:00:18.239Z,101591.09
2023-02-11T00:00:30.210Z,101597.09
2023-02-11T00:00:42.771Z,101595.47
2023-02-11T00:00:54.702Z,101592.84
2023-02-11T00:01:11.918Z,101600.44
2023-02-11T00:01:29.716Z,101595.31
2023-02-11T00:01:41.701Z,101598.72
2023-02-11T00:01:53.707Z,101599.50
2023-02-11T00:02:06.772Z,101595.22
2023-02-11T00:02:18.774Z,101589.25
2023-02-11T00:02:32.430Z,101597.72
2023-02-11T00:02:46.846Z,101597.72
2023-02-11T00:02:59.930Z,101600.34
2023-02-11T00:03:14.551Z,101600.25
2023-02-11T00:03:26.720Z,101597.78
2023-02-11T00:03:38.897Z,101596.09
2023-02-11T00:03:51.450Z,101597.78
2023-02-11T00:04:04.655Z,101600.34
2023-02-11T00:04:16.874Z,101599.47
2023-02-11T00:04:28.817Z,101599.47
2023-02-11T00:04:40.728Z,101594.22
2023-02-11T00:04:52.788Z,101598.56
2023-02-11T00:05:05.359Z,101591.72
2023-02-11T00:05:19.905Z,101592.66
2023-02-11T00:05:31.895Z,101601.13
2023-02-11T00:05:43.895Z,101595.22
2023-02-11T00:06:04.187Z,101602.88
2023-02-11T00:06:16.702Z,101592.72
2023-02-11T00:06:30.563Z,101593.59
2023-02-11T00:06:42.899Z,101592.72
2023-02-11T00:06:55.354Z,101594.38
2023-02-11T00:07:07.535Z,101597.84
2023-02-11T00:07:19.524Z,101593.59
2023-02-11T00:07:32.569Z,101598.72
2023-02-11T00:07:44.710Z,101596.94
2023-02-11T00:07:57.131Z,101596.22
2023-02-11T00:08:09.112Z,101597.88
2023-02-11T00:08:21.080Z,101598.72
2023-02-11T00:08:36.277Z,101600.34
2023-02-11T00:08:48.286Z,101603.69
2023-02-11T00:09:00.889Z,101600.19
2023-02-11T00:09:12.840Z,101598.22
2023-02-11T00:09:24.766Z,101599.91
2023-02-11T00:09:39.152Z,101596.44
2023-02-11T00:09:51.248Z,101596.34
2023-02-11T00:10:07.773Z,101594.47
2023-02-11T00:10:19.674Z,101598.75
2023-02-11T00:10:31.676Z,101595.41
2023-02-11T00:10:46.294Z,101594.56
2023-02-11T00:10:58.828Z,101606.63
2023-02-11T00:11:18.757Z,101597.28
2023-02-11T00:11:30.852Z,101597.28
2023-02-11T00:11:42.874Z,101599.06
2023-02-11T00:11:54.805Z,101594.81
2023-02-11T00:12:06.823Z,101599.94
2023-02-11T00:12:19.593Z,101599.16
2023-02-11T00:12:31.622Z,101598.31
2023-02-11T00:12:43.653Z,101600.09
2023-02-11T00:12:55.960Z,101599.16
2023-02-11T00:13:07.904Z,101603.31
2023-02-11T00:13:19.891Z,101597.34
2023-02-11T00:13:31.883Z,101598.22
2023-02-11T00:13:45.055Z,101597.38
2023-02-11T00:14:02.299Z,101600.84
2023-02-11T00:14:14.291Z,101593.09
2023-02-11T00:14:26.699Z,101601.72
2023-02-11T00:14:38.633Z,101598.22
2023-02-11T00:14:53.142Z,101593.88
2023-02-11T00:15:07.636Z,101599.06
2023-02-11T00:15:21.075Z,101598.31
2023-02-11T00:15:33.016Z,101593.22
2023-02-11T00:15:44.972Z,101594.97
2023-02-11T00:15:57.166Z,101603.56
2023-02-11T00:16:12.373Z,101594.13
2023-02-11T00:16:24.391Z,101598.47
2023-02-11T00:16:36.532Z,101601.88
2023-02-11T00:16:48.529Z,101599.31
2023-02-11T00:17:00.648Z,101606.13
2023-02-11T00:17:12.840Z,101595.91
2023-02-11T00:17:24.818Z,101601.97
2023-02-11T00:17:37.036Z,101601.97
2023-02-11T00:17:48.994Z,101598.47
2023-02-11T00:18:00.952Z,101601.88
2023-02-11T00:18:12.896Z,101601.97
2023-02-11T00:18:24.812Z,101602.72
2023-02-11T00:18:38.345Z,101604.44
2023-02-11T00:18:52.885Z,101601.81
2023-02-11T00:19:06.578Z,101607.69
2023-02-11T00:19:18.586Z,101608.53
2023-02-11T00:19:30.656Z,101604.25
2023-02-11T00:19:42.658Z,101599.84
2023-02-11T00:19:54.690Z,101608.44
2023-02-11T00:20:08.305Z,101600.75
2023-02-11T00:20:20.328Z,101603.41
2023-02-11T00:20:32.265Z,101602.56
2023-02-11T00:20:44.355Z,101606.81
2023-02-11T00:20:56.328Z,101604.13
2023-02-11T00:21:16.209Z,101607.50
2023-02-11T00:21:29.309Z,101603.19
2023-02-11T00:21:41.392Z,101602.16
2023-02-11T00:21:53.471Z,101608.19
2023-02-11T00:22:05.938Z,101602.00
2023-02-11T00:22:18.554Z,101606.16
2023-02-11T00:22:30.796Z,101595.56
2023-02-11T00:22:42.786Z,101605.56
2023-02-11T00:22:54.725Z,101606.50
2023-02-11T00:23:06.863Z,101602.31
2023-02-11T00:23:19.038Z,101604.03
2023-02-11T00:23:31.091Z,101607.53
2023-02-11T00:23:43.667Z,101604.22
2023-02-11T00:23:57.169Z,101606.06
2023-02-11T00:24:09.154Z,101605.16
2023-02-11T00:24:21.088Z,101606.06
2023-02-11T00:24:33.113Z,101605.97
2023-02-11T00:24:45.045Z,101606.91
2023-02-11T00:24:57.156Z,101609.47
2023-02-11T00:25:09.205Z,101606.06
2023-02-11T00:25:21.260Z,101606.06
2023-02-11T00:25:33.316Z,101606.06
2023-02-11T00:25:45.959Z,101602.75
2023-02-11T00:25:57.874Z,101604.44
2023-02-11T00:26:19.021Z,101610.34
2023-02-11T00:26:33.958Z,101611.28
2023-02-11T00:26:45.881Z,101610.47
2023-02-11T00:26:57.935Z,101607.94
2023-02-11T00:27:09.901Z,101605.38
2023-02-11T00:27:21.830Z,101607.94
2023-02-11T00:27:33.834Z,101609.59
2023-02-11T00:27:45.807Z,101608.72
2023-02-11T00:27:57.789Z,101606.16
2023-02-11T00:28:10.417Z,101613.84
2023-02-11T00:28:22.366Z,101607.94
2023-02-11T00:28:34.405Z,101610.53
2023-02-11T00:28:47.090Z,101606.31
2023-02-11T00:29:00.705Z,101609.81
2023-02-11T00:29:12.602Z,101603.00
2023-02-11T00:29:24.658Z,101602.16
2023-02-11T00:29:37.662Z,101610.66
2023-02-11T00:29:49.626Z,101604.69
2023-02-11T00:30:02.563Z,101602.13
2023-02-11T00:30:14.546Z,101604.69
2023-02-11T00:30:26.572Z,101608.19
2023-02-11T00:30:38.769Z,101607.34
2023-02-11T00:31:01.618Z,101603.19
2023-02-11T00:31:15.498Z,101608.19
2023-02-11T00:31:29.559Z,101606.56
2023-02-11T00:31:41.837Z,101599.69
2023-02-11T00:31:54.031Z,101606.56
2023-02-11T00:32:06.552Z,101594.66
2023-02-11T00:32:18.580Z,101602.31
2023-02-11T00:32:30.544Z,101599.84
2023-02-11T00:32:42.605Z,101600.69
2023-02-11T00:32:54.682Z,101607.56
2023-02-11T00:33:09.741Z,101608.44
2023-02-11T00:33:22.216Z,101604.13
2023-02-11T00:33:34.169Z,101596.44
2023-02-11T00:33:46.436Z,101599.84
2023-02-11T00:33:58.419Z,101595.59
2023-02-11T00:34:10.372Z,101599.00
2023-02-11T00:34:22.296Z,101601.56
2023-02-11T00:34:36.054Z,101596.44
2023-02-11T00:34:48.124Z,101598.13
2023-02-11T00:35:00.059Z,101601.56
2023-02-11T00:35:12.083Z,101599.94
2023-02-11T00:35:24.002Z,101599.06
2023-02-11T00:35:38.573Z,101601.72
2023-02-11T00:35:50.820Z,101595.72
2023-02-11T00:36:08.367Z,101598.22
2023-02-11T00:36:25.968Z,101591.34
2023-02-11T00:36:37.877Z,101598.22
2023-02-11T00:36:52.433Z,101601.56
2023-02-11T00:37:05.352Z,101601.56
2023-02-11T00:37:17.272Z,101598.06
2023-02-11T00:37:29.295Z,101605.69
2023-02-11T00:37:41.276Z,101599.56
2023-02-11T00:37:54.302Z,101603.78
2023-02-11T00:38:07.424Z,101595.94
2023-02-11T00:38:19.461Z,101594.22
2023-02-11T00:38:31.392Z,101597.56
2023-02-11T00:38:44.343Z,101592.50
2023-02-11T00:38:57.373Z,101601.06
2023-02-11T00:39:09.384Z,101602.81
2023-02-11T00:39:21.352Z,101599.44
2023-02-11T00:39:33.311Z,101594.31
2023-02-11T00:39:45.220Z,101597.75
2023-02-11T00:39:57.175Z,101595.25
2023-02-11T00:40:09.721Z,101602.06
2023-02-11T00:40:22.554Z,101604.69
2023-02-11T00:40:34.515Z,101603.78
2023-02-11T00:40:46.441Z,101600.78
2023-02-11T00:40:58.427Z,101595.56
2023-02-11T00:41:11.653Z,101605.66
2023-02-11T00:41:23.738Z,101598.66
2023-02-11T00:41:35.872Z,101608.72
2023-02-11T00:41:47.852Z,101605.25
2023-02-11T00:41:59.806Z,101610.25
2023-02-11T00:42:15.035Z,101611.97
2023-02-11T00:42:26.990Z,101611.97
2023-02-11T00:42:38.927Z,101603.50
2023-02-11T00:42:50.867Z,101606.84
2023-02-11T00:43:02.876Z,101607.69
2023-02-11T00:43:14.777Z,101609.16
2023-02-11T00:43:26.789Z,101603.09
2023-02-11T00:43:39.339Z,101597.13
2023-02-11T00:43:54.397Z,101601.09
2023-02-11T00:44:06.308Z,101598.47
2023-02-11T00:44:21.349Z,101595.59
2023-02-11T00:44:33.256Z,101598.97
2023-02-11T00:44:45.194Z,101602.31
2023-02-11T00:44:57.425Z,101596.31
2023-02-11T00:45:09.899Z,101597.06
2023-02-11T00:45:21.918Z,101591.81
2023-02-11T00:45:33.816Z,101590.75
2023-02-11T00:45:45.868Z,101588.06
2023-02-11T00:45:57.833Z,101590.53
2023-02-11T00:46:10.066Z,101593.84
2023-02-11T00:46:22.677Z,101586.03
2023-02-11T00:46:35.045Z,101585.91
2023-02-11T00:46:47.139Z,101584.00
2023-02-11T00:46:59.085Z,101585.47
2023-02-11T00:47:11.197Z,101588.84
2023-02-11T00:47:23.415Z,101589.50
2023-02-11T00:47:35.879Z,101590.31
2023-02-11T00:47:48.087Z,101584.91
2023-02-11T00:48:00.010Z,101583.84
2023-02-11T00:48:11.909Z,101592.84
2023-02-11T00:48:23.834Z,101591.22
2023-02-11T00:48:36.071Z,101580.75
2023-02-11T00:48:48.865Z,101583.22
2023-02-11T00:49:00.818Z,101583.94
2023-02-11T00:49:12.745Z,101581.91
2023-02-11T00:49:25.299Z,101576.72
2023-02-11T00:49:39.572Z,101580.13
2023-02-11T00:49:51.510Z,101582.66
2023-02-11T00:50:05.479Z,101578.25
2023-02-11T00:50:17.438Z,101579.19
2023-02-11T00:50:29.388Z,101585.91
2023-02-11T00:50:43.767Z,101587.50
2023-02-11T00:50:55.685Z,101576.22
2023-02-11T00:51:08.241Z,101576.97
2023-02-11T00:51:23.202Z,101580.38
2023-02-11T00:51:35.202Z,101577.09
2023-02-11T00:51:47.197Z,101572.75
2023-02-11T00:51:59.151Z,101581.34
2023-02-11T00:52:11.149Z,101580.47
2023-02-11T00:52:23.082Z,101571.88
2023-02-11T00:52:35.303Z,101573.53
2023-02-11T00:52:47.233Z,101575.13
2023-02-11T00:52:59.257Z,101574.19
2023-02-11T00:53:11.241Z,101578.50
2023-02-11T00:53:23.151Z,101576.69
2023-02-11T00:53:35.837Z,101570.84
2023-02-11T00:53:47.765Z,101573.53
2023-02-11T00:53:59.747Z,101575.28
2023-02-11T00:54:11.758Z,101577.97
2023-02-11T00:54:23.823Z,101576.22
2023-02-11T00:54:35.804Z,101581.41
2023-02-11T00:54:47.746Z,101579.84
2023-02-11T00:54:59.762Z,101581.63
2023-02-11T00:55:11.770Z,101574.91
2023-02-11T00:55:23.756Z,101576.66
2023-02-11T00:55:35.770Z,101577.75
2023-02-11T00:55:47.909Z,101577.94
2023-02-11T00:56:01.174Z,101577.09
2023-02-11T00:56:13.198Z,101579.06
2023-02-11T00:56:25.290Z,101580.78
2023-02-11T00:56:37.328Z,101575.09
2023-02-11T00:56:49.838Z,101574.44
2023-02-11T00:57:01.875Z,101580.56
2023-02-11T00:57:13.853Z,101567.88
2023-02-11T00:57:25.875Z,101574.88
2023-02-11T00:57:37.897Z,101579.31
2023-02-11T00:57:49.953Z,101576.75
2023-02-11T00:58:02.009Z,101575.13
2023-02-11T00:58:14.188Z,101578.63
2023-02-11T00:58:26.352Z,101578.75
2023-02-11T00:58:38.531Z,101580.53
2023-02-11T00:58:50.797Z,101576.34
2023-02-11T00:59:02.729Z,101573.13
2023-02-11T00:59:14.737Z,101575.81
2023-02-11T00:59:27.009Z,101580.03
2023-02-11T00:59:38.977Z,101578.91
2023-02-11T00:59:50.926Z,101577.97
2023-02-11T01:00:05.104Z,101578.63
2023-02-11T01:00:17.293Z,101581.78
2023-02-11T01:00:29.274Z,101581.84
2023-02-11T01:00:41.209Z,101580.38
2023-02-11T01:00:54.900Z,101579.69
2023-02-11T01:01:07.698Z,101579.50
2023-02-11T01:01:19.847Z,101575.72
2023-02-11T01:01:31.945Z,101579.41
2023-02-11T01:01:43.854Z,101578.63
2023-02-11T01:01:55.889Z,101580.09
2023-02-11T01:02:07.792Z,101574.97
2023-02-11T01:02:19.715Z,101576.59
2023-02-11T01:02:31.768Z,101572.09
2023-02-11T01:02:43.716Z,101575.88
2023-02-11T01:02:55.951Z,101579.56
2023-02-11T01:03:07.900Z,101583.34
2023-02-11T01:03:19.870Z,101585.03
2023-02-11T01:03:31.878Z,101584.00
2023-02-11T01:03:43.940Z,101586.22
2023-02-11T01:03:55.881Z,101583.31
2023-02-11T01:04:07.835Z,101587.81
2023-02-11T01:04:19.798Z,101579.50
2023-02-11T01:04:31.734Z,101578.47
2023-02-11T01:04:43.637Z,101579.22
2023-02-11T01:04:55.580Z,101585.88
2023-02-11T01:05:08.177Z,101578.47
2023-02-11T01:05:21.386Z,101583.75
2023-02-11T01:05:33.585Z,101583.88
2023-02-11T01:05:45.629Z,101583.00
2023-02-11T01:05:57.545Z,101582.41
2023-02-11T01:06:10.135Z,101589.13
2023-02-11T01:06:22.122Z,101585.75
2023-02-11T01:06:34.118Z,101584.97
2023-02-11T01:06:46.069Z,101587.34
2023-02-11T01:06:57.994Z,101585.75
2023-02-11T01:07:09.931Z,101584.97
2023-02-11T01:07:21.901Z,101575.81
2023-02-11T01:07:33.869Z,101583.63
2023-02-11T01:07:46.039Z,101588.06
2023-02-11T01:07:58.493Z,101584.56
2023-02-11T01:08:10.484Z,101581.06
2023-02-11T01:08:22.842Z,101581.94
2023-02-11T01:08:34.925Z,101575.97
2023-02-11T01:08:46.867Z,101580.78
2023-02-11T01:08:58.853Z,101582.25
2023-02-11T01:09:10.818Z,101582.25
2023-02-11T01:09:22.812Z,101578.03
2023-02-11T01:09:34.741Z,101579.66
2023-02-11T01:09:46.665Z,101578.63
2023-02-11T01:09:58.639Z,101580.38
2023-02-11T01:10:11.643Z,101581.03
2023-02-11T01:10:23.657Z,101575.81
2023-02-11T01:10:35.621Z,101578.34
2023-02-11T01:11:12.047Z,101577.50
2023-02-11T01:11:24.162Z,101578.34
2023-02-11T01:11:36.293Z,101578.28
2023-02-11T01:11:48.325Z,101579.22
2023-02-11T01:12:00.442Z,101577.41
2023-02-11T01:12:12.432Z,101577.41
2023-02-11T01:12:24.851Z,101578.34
2023-02-11T01:12:36.984Z,101573.38
2023-02-11T01:12:48.924Z,101579.38
2023-02-11T01:13:01.722Z,101575.25
2023-02-11T01:13:13.718Z,101576.19
2023-02-11T01:13:27.110Z,101572.38
2023-02-11T01:13:39.283Z,101575.94
2023-02-11T01:13:51.243Z,101568.16
2023-02-11T01:14:03.574Z,101571.66
2023-02-11T01:14:15.630Z,101574.88
2023-02-11T01:14:27.620Z,101574.88
2023-02-11T01:14:39.549Z,101567.72
2023-02-11T01:14:51.935Z,101569.06
2023-02-11T01:15:06.378Z,101575.63
2023-02-11T01:15:19.806Z,101571.19
2023-02-11T01:15:32.288Z,101566.13
2023-02-11T01:15:44.285Z,101574.91
2023-02-11T01:15:57.381Z,101572.53
2023-02-11T01:16:10.810Z,101566.69
2023-02-11T01:16:22.867Z,101574.44
2023-02-11T01:16:34.857Z,101567.72
2023-02-11T01:16:46.780Z,101570.28
2023-02-11T01:16:58.691Z,101570.44
2023-02-11T01:17:10.713Z,101567.88
2023-02-11T01:17:23.277Z,101566.25
2023-02-11T01:17:36.113Z,101563.63
2023-02-11T01:17:49.985Z,101562.88
2023-02-11T01:18:01.938Z,101568.16
2023-02-11T01:18:13.893Z,101563.84
2023-02-11T01:18:27.060Z,101561.44
2023-02-11T01:18:39.477Z,101556.34
2023-02-11T01:18:51.432Z,101566.66
2023-02-11T01:19:03.458Z,101562.78
2023-02-11T01:19:15.368Z,101561.16
2023-02-11T01:19:27.255Z,101559.63
2023-02-11T01:19:39.441Z,101567.50
2023-02-11T01:19:51.400Z,101562.53
2023-02-11T01:20:06.404Z,101563.66
2023-02-11T01:20:22.399Z,101563.88
2023-02-11T01:20:34.373Z,101563.19
2023-02-11T01:20:46.462Z,101553.09
2023-02-11T01:20:58.402Z,101558.47
2023-02-11T01:21:11.005Z,101557.75
2023-02-11T01:21:22.994Z,101556.13
2023-02-11T01:21:35.037Z,101552.16
2023-02-11T01:21:46.970Z,101551.41
2023-02-11T01:21:58.984Z,101560.06
2023-02-11T01:22:10.967Z,101555.06
2023-02-11T01:22:22.955Z,101554.41
2023-02-11T01:22:37.334Z,101553.66
2023-02-11T01:22:49.295Z,101551.28
2023-02-11T01:23:01.199Z,101557.34
2023-02-11T01:23:13.957Z,101556.53
2023-02-11T01:23:26.226Z,101549.00
2023-02-11T01:23:38.186Z,101550.78
2023-02-11T01:23:50.149Z,101555.19
2023-02-11T01:24:02.102Z,101553.41
2023-02-11T01:24:14.124Z,101551.69
2023-02-11T01:24:26.053Z,101548.38
2023-02-11T01:24:38.054Z,101553.31
2023-02-11T01:24:49.946Z,101547.94
2023-02-11T01:25:01.838Z,101557.22
2023-02-11T01:25:13.801Z,101561.41
2023-02-11T01:25:25.738Z,101551.28
2023-02-11T01:25:37.654Z,101553.06
2023-02-11T01:25:52.812Z,101550.69
2023-02-11T01:26:05.453Z,101557.09
2023-02-11T01:26:17.381Z,101555.91
2023-02-11T01:26:29.411Z,101559.38
2023-02-11T01:26:41.385Z,101560.88
2023-02-11T01:26:53.332Z,101558.38
2023-02-11T01:27:05.369Z,101564.09
2023-02-11T01:27:17.364Z,101556.66
2023-02-11T01:27:29.286Z,101558.28
2023-02-11T01:27:41.392Z,101567.63
2023-02-11T01:27:53.348Z,101569.38
2023-02-11T01:28:05.652Z,101563.47
2023-02-11T01:28:22.054Z,101564.47
2023-02-11T01:28:34.109Z,101559.66
2023-02-11T01:28:46.124Z,101560.59
2023-02-11T01:29:00.029Z,101565.84
2023-02-11T01:29:12.014Z,101563.41
2023-02-11T01:29:24.139Z,101564.78
2023-02-11T01:29:36.095Z,101571.13
2023-02-11T01:29:48.007Z,101561.69
2023-02-11T01:30:00.201Z,101563.66
2023-02-11T01:30:13.967Z,101555.22
2023-02-11T01:30:26.077Z,101562.72
2023-02-11T01:30:37.987Z,101568.00
2023-02-11T01:30:50.621Z,101560.56
2023-02-11T01:31:03.424Z,101557.38
2023-02-11T01:31:15.488Z,101558.88
2023-02-11T01:31:27.717Z,101563.47
2023-02-11T01:31:39.826Z,101562.63
2023-02-11T01:31:52.627Z,101564.13
2023-02-11T01:32:04.818Z,101565.75
2023-02-11T01:32:16.861Z,101560.84
2023-02-11T01:32:28.834Z,101561.84
2023-02-11T01:32:40.889Z,101563.72
2023-02-11T01:32:52.837Z,101557.00
2023-02-11T01:33:04.754Z,101561.09
2023-02-11T01:33:17.176Z,101557.25
2023-02-11T01:33:29.477Z,101555.63
2023-02-11T01:33:41.788Z,101560.88
2023-02-11T01:33:53.706Z,101564.34
2023-02-11T01:34:06.696Z,101559.38
2023-02-11T01:34:18.647Z,101554.28
2023-02-11T01:34:30.774Z,101557.09
2023-02-11T01:34:42.681Z,101561.25
2023-02-11T01:34:54.959Z,101554.53
2023-02-11T01:35:07.489Z,101558.16
2023-02-11T01:35:19.452Z,101553.91
2023-02-11T01:35:31.402Z,101556.53
2023-02-11T01:35:44.579Z,101554.84
2023-02-11T01:36:00.575Z,101555.97
2023-02-11T01:36:13.056Z,101556.13
2023-02-11T01:36:25.100Z,101556.22
2023-02-11T01:36:37.322Z,101548.56
2023-02-11T01:36:49.279Z,101555.28
2023-02-11T01:37:01.240Z,101554.50
2023-02-11T01:37:13.227Z,101554.59
2023-02-11T01:37:26.115Z,101547.94
2023-02-11T01:37:38.077Z,101552.38
2023-02-11T01:37:49.986Z,101546.50
2023-02-11T01:38:02.079Z,101552.69
2023-02-11T01:38:17.502Z,101549.44
2023-02-11T01:38:29.798Z,101552.94
2023-02-11T01:38:41.851Z,101547.91
2023-02-11T01:38:53.752Z,101554.03
2023-02-11T01:39:05.726Z,101545.63
2023-02-11T01:39:17.763Z,101548.28
2023-02-11T01:39:33.227Z,101549.22
2023-02-11T01:39:45.179Z,101554.41
2023-02-11T01:39:57.110Z,101550.28
2023-02-11T01:40:14.155Z,101543.53
2023-02-11T01:40:26.112Z,101545.28
2023-02-11T01:40:38.033Z,101548.75
2023-02-11T01:40:52.976Z,101548.75
2023-02-11T01:41:10.857Z,101545.28
2023-02-11T01:41:22.773Z,101543.66
2023-02-11T01:41:35.805Z,101548.00
2023-02-11T01:41:47.745Z,101549.63
2023-02-11T01:41:59.656Z,101542.72
2023-02-11T01:42:16.089Z,101555.41
2023-02-11T01:42:28.690Z,101545.97
2023-02-11T01:42:41.172Z,101545.03
2023-02-11T01:42:53.082Z,101555.28
2023-02-11T01:43:05.357Z,101550.06
2023-02-11T01:43:17.752Z,101548.22
2023-02-11T01:43:34.506Z,101546.56
2023-02-11T01:43:49.280Z,101553.31
2023-02-11T01:44:22.815Z,101553.03
2023-02-11T01:44:38.241Z,101544.31
2023-02-11T01:44:52.289Z,101549.38
2023-02-11T01:45:42.493Z,101547.44
2023-02-11T01:46:17.851Z,101545.25
2023-02-11T01:46:36.211Z,101541.75
2023-02-11T01:46:48.333Z,101547.91
2023-02-11T01:47:01.343Z,101543.63
2023-02-11T01:47:13.306Z,101546.44
2023-02-11T01:47:25.377Z,101544.81
2023-02-11T01:47:37.299Z,101537.94
2023-02-11T01:47:49.181Z,101542.78
2023-02-11T01:48:02.417Z,101542.94
2023-02-11T01:48:22.578Z,101542.31
2023-02-11T01:48:38.638Z,101539.00
2023-02-11T01:48:55.542Z,101541.69
2023-02-11T01:49:12.405Z,101535.88
2023-02-11T01:49:38.476Z,101532.41
2023-02-11T01:49:57.356Z,101536.91
2023-02-11T01:50:09.482Z,101536.13
2023-02-11T01:50:21.410Z,101536.91
2023-02-11T01:50:34.098Z,101534.66
2023-02-11T01:50:50.495Z,101537.50
2023-02-11T01:51:21.226Z,101537.03
2023-02-11T01:51:39.149Z,101538.19
2023-02-11T01:51:53.750Z,101540.06
2023-02-11T01:52:30.423Z,101540.41
2023-02-11T01:52:43.548Z,101533.53
2023-02-11T01:53:15.566Z,101535.38
2023-02-11T01:53:51.033Z,101533.09
2023-02-11T01:54:24.275Z,101539.44
2023-02-11T01:55:02.784Z,101537.59
2023-02-11T01:55:33.595Z,101532.47
2023-02-11T01:56:04.376Z,101532.19
2023-02-11T01:56:36.684Z,101537.31
2023-02-11T01:57:10.632Z,101528.91
2023-02-11T01:57:26.407Z,101536.53
2023-02-11T01:57:41.465Z,101535.53
2023-02-11T01:57:56.986Z,101530.47
2023-02-11T01:58:09.000Z,101533.09
2023-02-11T01:58:21.114Z,101531.53
2023-02-11T01:58:38.771Z,101533.31
2023-02-11T01:58:51.943Z,101529.13
2023-02-11T01:59:12.671Z,101528.41
2023-02-11T01:59:30.427Z,101533.75
2023-02-11T01:59:56.189Z,101533.66
2023-02-11T02:00:24.086Z,101529.41
2023-02-11T02:00:38.813Z,101534.41
2023-02-11T02:00:50.932Z,101529.47
2023-02-11T02:01:06.872Z,101532.22
2023-02-11T02:01:25.545Z,101532.25
2023-02-11T02:01:39.444Z,101533.94
2023-02-11T02:02:00.628Z,101533.69
2023-02-11T02:02:15.163Z,101539.91
2023-02-11T02:02:37.324Z,101543.28
2023-02-11T02:02:58.662Z,101534.81
2023-02-11T02:03:20.154Z,101535.50
2023-02-11T02:03:36.627Z,101538.28
2023-02-11T02:03:56.304Z,101541.03
2023-02-11T02:04:10.230Z,101538.63
2023-02-11T02:04:27.274Z,101534.38
2023-02-11T02:04:46.585Z,101530.88
2023-02-11T02:05:30.528Z,101532.94
2023-02-11T02:05:51.778Z,101533.97
2023-02-11T02:06:10.933Z,101530.34
2023-02-11T02:06:29.866Z,101532.19
2023-02-11T02:06:52.833Z,101531.28
2023-02-11T02:07:17.185Z,101536.34
2023-02-11T02:07:37.244Z,101533.03
2023-02-11T02:08:07.214Z,101526.41
2023-02-11T02:08:35.332Z,101527.19
2023-02-11T02:08:56.497Z,101532.34
2023-02-11T02:09:16.998Z,101530.63
2023-02-11T02:09:33.095Z,101528.13
2023-02-11T02:09:55.857Z,101531.72
2023-02-11T02:10:13.917Z,101528.25
2023-02-11T02:10:28.053Z,101529.19
2023-02-11T02:10:46.345Z,101524.13
2023-02-11T02:11:00.878Z,101537.06
2023-02-11T02:11:13.024Z,101525.16
2023-02-11T02:11:26.213Z,101531.22
2023-02-11T02:11:38.276Z,101535.59
2023-02-11T02:11:50.750Z,101533.97
2023-02-11T02:12:02.761Z,101528.06
2023-02-11T02:12:14.710Z,101533.19
2023-02-11T02:12:26.636Z,101531.59
2023-02-11T02:12:38.676Z,101527.38
2023-02-11T02:12:55.230Z,101530.00
2023-02-11T02:13:09.308Z,101529.22
2023-02-11T02:13:21.224Z,101536.06
2023-02-11T02:13:35.304Z,101531.91
2023-02-11T02:13:47.268Z,101531.97
2023-02-11T02:14:01.613Z,101528.50
2023-02-11T02:14:13.576Z,101521.41
2023-02-11T02:14:26.556Z,101519.75
2023-02-11T02:14:40.431Z,101525.47
2023-02-11T02:14:52.359Z,101523.78
2023-02-11T02:15:31.874Z,101528.72
2023-02-11T02:16:12.298Z,101526.47
2023-02-11T02:16:31.460Z,101525.72
2023-02-11T02:16:44.657Z,101532.72
2023-02-11T02:16:56.693Z,101531.13
2023-02-11T02:17:26.662Z,101526.16
2023-02-11T02:17:50.938Z,101530.63
2023-02-11T02:18:32.889Z,101529.13
2023-02-11T02:19:03.357Z,101531.81
2023-02-11T02:19:37.140Z,101529.34
2023-02-11T02:20:19.663Z,101528.44
2023-02-11T02:21:16.348Z,101528.53
2023-02-11T02:21:46.330Z,101530.47
2023-02-11T02:22:19.714Z,101521.84
2023-02-11T02:22:37.341Z,101521.03
2023-02-11T02:23:04.270Z,101520.09
2023-02-11T02:23:26.473Z,101525.09
2023-02-11T02:24:01.034Z,101525.75
2023-02-11T02:24:34.498Z,101520.13
2023-02-11T02:25:17.516Z,101523.28
2023-02-11T02:25:44.225Z,101523.81
2023-02-11T02:26:21.885Z,101522.28
2023-02-11T02:26:45.756Z,101516.00
2023-02-11T02:27:18.792Z,101521.19
2023-02-11T02:28:14.468Z,101521.31
2023-02-11T02:28:58.447Z,101506.44
2023-02-11T02:29:28.677Z,101512.59
2023-02-11T02:30:02.174Z,101507.00
2023-02-11T02:30:28.807Z,101502.88
2023-02-11T02:30:53.207Z,101497.94
2023-02-11T02:31:07.986Z,101504.91
2023-02-11T02:31:38.854Z,101501.72
2023-02-11T02:32:12.622Z,101494.94
2023-02-11T02:32:36.386Z,101490.81
2023-02-11T02:33:22.523Z,101483.13
2023-02-11T02:33:55.631Z,101488.53
2023-02-11T02:34:20.794Z,101480.81
2023-02-11T02:34:44.530Z,101485.16
2023-02-11T02:35:09.576Z,101483.19
2023-02-11T02:35:30.288Z,101481.34
2023-02-11T02:35:59.048Z,101485.56
2023-02-11T02:36:46.565Z,101485.38
2023-02-11T02:37:12.140Z,101479.72
2023-02-11T02:37:37.657Z,101487.00
2023-02-11T02:38:11.095Z,101491.09
2023-02-11T02:38:35.493Z,101484.34
2023-02-11T02:38:55.578Z,101489.53
2023-02-11T02:39:21.365Z,101484.84
2023-02-11T02:39:36.048Z,101478.81
2023-02-11T02:39:50.216Z,101483.22
2023-02-11T02:40:09.096Z,101478.28
2023-02-11T02:40:30.182Z,101482.06
2023-02-11T02:40:57.847Z,101478.97
2023-02-11T02:41:13.425Z,101478.97
2023-02-11T02:41:30.461Z,101482.41
2023-02-11T02:41:43.803Z,101478.97
2023-02-11T02:41:56.794Z,101484.13
2023-02-11T02:42:09.407Z,101483.28
2023-02-11T02:42:22.301Z,101479.72
2023-02-11T02:42:34.554Z,101479.78
2023-02-11T02:42:47.870Z,101477.41
2023-02-11T02:43:02.084Z,101475.00
2023-02-11T02:43:15.654Z,101469.84
2023-02-11T02:43:29.213Z,101479.25
2023-02-11T02:43:45.120Z,101475.03
2023-02-11T02:43:57.309Z,101469.78
2023-02-11T02:44:09.389Z,101470.75
2023-02-11T02:44:21.413Z,101472.41
2023-02-11T02:44:33.954Z,101465.50
2023-02-11T02:44:52.952Z,101465.50
2023-02-11T02:45:07.219Z,101471.41
2023-02-11T02:45:19.600Z,101474.06
2023-02-11T02:45:32.795Z,101471.22
2023-02-11T02:45:44.907Z,101466.78
2023-02-11T02:46:17.724Z,101457.00
2023-02-11T02:46:32.119Z,101463.53
2023-02-11T02:46:44.387Z,101454.78
2023-02-11T02:46:56.710Z,101456.44
2023-02-11T02:47:08.703Z,101451.31
2023-02-11T02:47:20.706Z,101458.16
2023-02-11T02:47:35.130Z,101452.38
2023-02-11T02:47:47.034Z,101454.97
2023-02-11T02:47:59.016Z,101458.28
2023-02-11T02:48:31.252Z,101452.66
2023-02-11T02:48:43.704Z,101454.38
2023-02-11T02:48:56.682Z,101458.50
2023-02-11T02:49:16.206Z,101454.91
2023-02-11T02:49:28.155Z,101454.09
2023-02-11T02:49:40.054Z,101458.31
2023-02-11T02:49:52.032Z,101457.47
2023-02-11T02:50:06.550Z,101453.25
2023-02-11T02:50:25.186Z,101453.38
2023-02-11T02:50:37.968Z,101455.16
2023-02-11T02:50:57.263Z,101446.53